Aérodrome :
LOGIN :

S'inscrire | Disclaimer

   EN    FR    IT 

 










Légende :    VFR   VFR Marginal   IFR   IFR Intensif   IFR Très Intensif
Visi : 
Plafond : 
>= 8 km
>= 3000ft
5 à 8 km
1000 à 3000 ft
1500m à 5 km
500 à 1000 ft
800 à 1500m
200 à 500 ft
< 800m
< 200 ft
Symboles :   Orages  Brouillard  Fortes neiges  Fortes précipitations  Vent > 20 kt
SIGMETs :   Divers  Orages  Givrage  Turbulence  Onde Orograph.  Cendres Volcan.







- Altitude de l'aérodrome : 112 ft
- Code IATA : SVQ


LEZL - Sevilla San Pablo

DERNIER METAR :
  • 210230Z 15002KT CAVOK 21/18 Q1016 NOSIG

METARs EXPIRÉS :
  • 210200Z 29004KT CAVOK 21/18 Q1015 NOSIG
  • 210130Z 32006KT 280V060 CAVOK 23/17 Q1015 NOSIG
  • 210100Z AUTO 22005KT 180V250 CAVOK 22/16 Q1016
  • 210030Z AUTO 23008KT 9999 NCD 22/16 Q1017
  • 210000Z AUTO 22008KT 9999 NCD 22/16 Q1017

TAF TAF LEZL
Valide du 21 à 03h jusqu'au 22 à 03h UTC


210200Z 2103/2203 33004KT CAVOK TX34/2115Z TN20/2105Z
BECMG 2115/2117 22010KT
Pas de NOTAMs connus pour ce terrain.
2 SIGMETs publiés pour la FIR Madrid (LECM) :
 
Orages noyés dans la masse
LECM SIGMET 2 VALID 210206/210500 LEVA
LECM MADRID FIR/UIR EMBD TS OBS AT 0206Z S OF LINE N3657 W00603 - N3657 W00433 TOP FL340 STNR NC=
Orages noyés dans la masse
LECM SIGMET 1 VALID 210107/210500 LEVA
LECM MADRID FIR/UIR EMBD TS OBS AT 0107Z WI N4138 W00246 - N4031 W00528 - N4244 W00631 - N4244 W00426 - N4138 W00246 TOP FL380 STNR NC=



MET'MAP, la Météo Aéronautique d'un coup d'oeil ! - Copyright ORBIFLY Décembre 2007 - Disclaimer

ORBIFLY MET'MAP TEAM :

Programmation & Développement : Alexandra Zaïnal
Conception & Développement : Baudouin d'Aumeries
Co-Programmation & Développement : Marc-Olivier Méhu
Soutien technique & logistique : Manuel Goepfert

Contact : metmap@orbifly.com




SOURCES & CREDITS :

   NOAA